Latest Weather Observations for Darwin Harbour

IDD60901

Issued at 5:51 am CST Tuesday 28 February 2017 (issued every 10 minutes, with the page automatically refreshed every 10 minutes)

About weather observations | Map of Darwin area stations | Latest observations for Darwin area | Other Formats
Station Details ID: 014072 Name: DARWIN NTC AWS Lat: -12.47 Lon: 130.85 Height: 0.0 m
Data from the previous 72 hours. | See also: Recent months for locations in Northern Territory
Date/Time
CST
Temp
°C
App
Temp
°C
Dew
Point
°C
Rel
Hum
%
Delta-T
°C
Wind Press
QNH
hPa
Press
MSL
hPa
Rain since
9am
mm
Dir  Spd
km/h
Gust
km/h
Spd
kts
Gust
kts
28/05:30am - - - - - NE 6 7 3 4 1007.1 1007.0 -
28/05:00am - - - - - ENE 4 7 2 4 1007.1 1007.0 -
28/04:30am - - - - - NW 4 7 2 4 1006.9 1006.8 -
28/04:00am - - - - - NNE 2 6 1 3 1007.1 1007.0 -
28/03:30am - - - - - NNE 2 6 1 3 1007.0 1006.9 -
28/03:00am - - - - - NNW 7 13 4 7 1007.2 1007.1 -
28/02:30am - - - - - NNW 9 15 5 8 1007.4 1007.3 -
28/02:00am - - - - - E 26 35 14 19 1008.2 1008.1 -
28/01:45am - - - - - E 20 39 11 21 1008.3 1008.2 -
28/01:30am - - - - - ENE 9 19 5 10 1008.1 1008.0 -
28/01:00am - - - - - ENE 7 11 4 6 1008.4 1008.3 -
28/12:30am - - - - - E 11 15 6 8 1008.8 1008.7 -
28/12:00am - - - - - NE 4 9 2 5 1008.7 1008.6 -
 
Date/Time
CST
Temp
°C
App
Temp
°C
Dew
Point
°C
Rel
Hum
%
Delta-T
°C
Wind Press
QNH
hPa
Press
MSL
hPa
Rain since
9am
mm
Dir  Spd
km/h
Gust
km/h
Spd
kts
Gust
kts
27/11:30pm - - - - - E 9 13 5 7 1009.0 1008.9 -
27/11:00pm - - - - - ENE 9 20 5 11 1008.7 1008.6 -
27/10:30pm - - - - - SW 6 13 3 7 1008.8 1008.7 -
27/10:00pm - - - - - W 7 9 4 5 1008.2 1008.1 -
27/09:30pm - - - - - W 7 11 4 6 1007.6 1007.5 -
27/09:00pm - - - - - NNE 4 7 2 4 1007.2 1007.1 -
27/08:30pm - - - - - NW 6 9 3 5 1007.1 1007.0 -
27/08:00pm - - - - - W 11 15 6 8 1006.5 1006.4 -
27/07:30pm - - - - - W 13 17 7 9 1006.2 1006.1 -
27/07:00pm - - - - - W 13 22 7 12 1006.1 1006.0 -
27/06:30pm - - - - - WNW 15 22 8 12 1006.1 1006.0 -
27/06:00pm - - - - - WNW 15 20 8 11 1005.5 1005.4 -
27/05:30pm - - - - - WNW 15 24 8 13 1005.6 1005.5 -
27/05:00pm - - - - - NW 9 19 5 10 1005.5 1005.4 -
27/04:30pm - - - - - WNW 13 26 7 14 1004.9 1004.8 -
27/04:00pm - - - - - WNW 19 26 10 14 1005.1 1005.0 -
27/03:30pm - - - - - WNW 11 22 6 12 1005.1 1005.0 -
27/03:00pm - - - - - SE 6 20 3 11 1005.4 1005.3 -
27/02:30pm - - - - - SW 6 9 3 5 1006.0 1005.9 -
27/02:00pm - - - - - SW 6 9 3 5 1006.4 1006.3 -
27/01:30pm - - - - - WSW 4 7 2 4 1006.8 1006.7 -
27/01:00pm - - - - - SW 7 9 4 5 1007.3 1007.2 -
27/12:30pm - - - - - SW 4 6 2 3 1007.6 1007.5 -
27/12:00pm - - - - - ESE 2 6 1 3 1008.0 1007.9 -
27/11:30am - - - - - ENE 4 7 2 4 1008.4 1008.3 -
27/11:00am - - - - - ENE 4 7 2 4 1008.6 1008.5 -
27/10:30am - - - - - ESE 4 6 2 3 1008.8 1008.7 -
27/10:00am - - - - - SSW 2 6 1 3 1009.1 1009.0 -
27/09:30am - - - - - S 6 7 3 4 1009.1 1009.0 -
27/09:00am - - - - - SSW 6 7 3 4 1009.1 1009.0 -
27/08:30am - - - - - SSW 9 13 5 7 1009.1 1009.0 -
27/08:00am - - - - - SSW 11 15 6 8 1008.8 1008.7 -
27/07:30am - - - - - SW 15 20 8 11 1008.4 1008.3 -
27/07:00am - - - - - SSW 11 13 6 7 1008.0 1007.9 -
27/06:30am - - - - - SSW 11 15 6 8 1007.6 1007.5 -
27/06:00am - - - - - SSW 9 13 5 7 1007.1 1007.0 -
27/05:30am - - - - - SSW 11 13 6 7 1006.7 1006.6 -
27/05:00am - - - - - SW 13 17 7 9 1006.7 1006.6 -
27/04:30am - - - - - SSW 11 15 6 8 1006.7 1006.6 -
27/04:00am - - - - - S 9 11 5 6 1006.7 1006.6 -
27/03:30am - - - - - SSW 9 13 5 7 1007.1 1007.0 -
27/03:00am - - - - - ENE 2 6 1 3 1007.5 1007.4 -
27/02:30am - - - - - CALM 0 2 0 1 1007.5 1007.4 -
27/02:00am - - - - - W 6 7 3 4 1007.9 1007.8 -
27/01:30am - - - - - WSW 7 11 4 6 1008.5 1008.4 -
27/01:00am - - - - - W 4 9 2 5 1009.2 1009.1 -
27/12:30am - - - - - E 4 7 2 4 1009.8 1009.7 -
27/12:00am - - - - - NNW 6 13 3 7 1009.5 1009.4 -
 
Date/Time
CST
Temp
°C
App
Temp
°C
Dew
Point
°C
Rel
Hum
%
Delta-T
°C
Wind Press
QNH
hPa
Press
MSL
hPa
Rain since
9am
mm
Dir  Spd
km/h
Gust
km/h
Spd
kts
Gust
kts
26/11:30pm - - - - - WNW 6 13 3 7 1009.4 1009.3 -
26/11:00pm - - - - - NNE 4 9 2 5 1010.0 1009.9 -
26/10:30pm - - - - - N 4 9 2 5 1009.3 1009.2 -
26/10:00pm - - - - - NE 4 13 2 7 1008.8 1008.7 -
26/09:30pm - - - - - NE 11 22 6 12 1008.2 1008.1 -
26/09:00pm - - - - - W 2 6 1 3 1007.8 1007.7 -
26/08:30pm - - - - - NNW 4 7 2 4 1007.7 1007.6 -
26/08:00pm - - - - - NW 6 17 3 9 1008.3 1008.2 -
26/07:30pm - - - - - WSW 6 17 3 9 1006.7 1006.6 -
26/07:00pm - - - - - WNW 11 19 6 10 1004.9 1004.8 -
26/06:30pm - - - - - WNW 6 11 3 6 1004.7 1004.6 -
26/06:00pm - - - - - NNW 9 20 5 11 1004.8 1004.7 -
26/05:30pm - - - - - W 11 17 6 9 1004.7 1004.6 -
26/05:00pm - - - - - W 15 26 8 14 1004.6 1004.5 -
26/04:30pm - - - - - W 11 20 6 11 1004.5 1004.4 -
26/04:00pm - - - - - WNW 9 17 5 9 1004.7 1004.6 -
26/03:30pm - - - - - WNW 6 15 3 8 1005.0 1004.9 -
26/03:00pm - - - - - WNW 11 19 6 10 1005.2 1005.1 -
26/02:30pm - - - - - W 7 17 4 9 1005.5 1005.4 -
26/02:00pm - - - - - W 9 15 5 8 1005.7 1005.6 -
26/01:30pm - - - - - W 6 7 3 4 1006.1 1006.0 -
26/01:00pm - - - - - W 6 7 3 4 1006.6 1006.5 -
26/12:30pm - - - - - W 4 6 2 3 1007.1 1007.0 -
26/12:00pm - - - - - W 4 6 2 3 1007.5 1007.4 -
26/11:30am - - - - - W 4 7 2 4 1007.8 1007.7 -
26/11:00am - - - - - ESE 2 7 1 4 1008.2 1008.1 -
26/10:30am - - - - - ENE 6 9 3 5 1008.4 1008.3 -
26/10:00am - - - - - ENE 7 13 4 7 1008.4 1008.3 -
26/09:30am - - - - - NW 4 11 2 6 1008.4 1008.3 -
26/09:00am - - - - - NW 2 7 1 4 1008.3 1008.2 -
26/08:30am - - - - - WNW 4 9 2 5 1008.5 1008.4 -
26/08:00am - - - - - NNW 6 20 3 11 1008.1 1008.0 -
26/07:30am - - - - - SSW 19 20 10 11 1008.2 1008.1 -
26/07:00am - - - - - SSW 17 20 9 11 1007.6 1007.5 -
26/06:30am - - - - - WSW 7 11 4 6 1007.4 1007.3 -
26/06:00am - - - - - SSW 15 19 8 10 1007.2 1007.1 -
26/05:30am - - - - - S 13 17 7 9 1007.2 1007.1 -
26/05:00am - - - - - SSW 13 17 7 9 1007.4 1007.3 -
26/04:30am - - - - - S 13 19 7 10 1007.6 1007.5 -
26/04:00am - - - - - SSE 11 15 6 8 1007.7 1007.6 -
26/03:30am - - - - - SSE 15 20 8 11 1007.7 1007.6 -
26/03:00am - - - - - SW 11 13 6 7 1007.7 1007.6 -
26/02:30am - - - - - WSW 11 17 6 9 1008.2 1008.1 -
26/02:00am - - - - - WSW 13 17 7 9 1008.3 1008.2 -
26/01:30am - - - - - WSW 13 17 7 9 1008.3 1008.2 -
26/01:00am - - - - - WSW 13 17 7 9 1008.2 1008.1 -
26/12:30am - - - - - W 13 15 7 8 1008.5 1008.4 -
26/12:00am - - - - - W 13 17 7 9 1009.1 1009.0 -
 
Date/Time
CST
Temp
°C
App
Temp
°C
Dew
Point
°C
Rel
Hum
%
Delta-T
°C
Wind Press
QNH
hPa
Press
MSL
hPa
Rain since
9am
mm
Dir  Spd
km/h
Gust
km/h
Spd
kts
Gust
kts
25/11:30pm - - - - - WNW 6 11 3 6 1009.4 1009.3 -
25/11:00pm - - - - - WNW 6 9 3 5 1009.5 1009.4 -
25/10:30pm - - - - - WNW 6 9 3 5 1009.4 1009.3 -
25/10:00pm - - - - - W 7 9 4 5 1009.2 1009.1 -
25/09:30pm - - - - - W 9 13 5 7 1008.8 1008.7 -
25/09:00pm - - - - - W 7 11 4 6 1008.5 1008.4 -
25/08:30pm - - - - - W 9 13 5 7 1008.3 1008.2 -
25/08:00pm - - - - - W 9 11 5 6 1008.2 1008.1 -
25/07:30pm - - - - - W 9 11 5 6 1007.8 1007.7 -
25/07:00pm - - - - - WSW 9 11 5 6 1007.5 1007.4 -
25/06:30pm - - - - - W 7 9 4 5 1006.9 1006.8 -
25/06:00pm - - - - - W 9 13 5 7 1006.8 1006.7 -
25/05:30pm - - - - - W 7 11 4 6 1006.9 1006.8 -
25/05:00pm - - - - - W 9 17 5 9 1007.0 1006.9 -
25/04:30pm - - - - - W 11 17 6 9 1006.9 1006.8 -
25/04:00pm - - - - - W 9 15 5 8 1007.2 1007.1 -
25/03:30pm - - - - - W 11 15 6 8 1007.7 1007.6 -
25/03:00pm - - - - - WSW 9 13 5 7 1008.0 1007.9 -
25/02:30pm - - - - - WSW 13 17 7 9 1008.2 1008.1 -
25/02:00pm - - - - - SSW 7 11 4 6 1008.9 1008.8 -
25/01:30pm - - - - - ESE 22 33 12 18 1009.1 1009.0 -
25/01:21pm - - - - - E 22 33 12 18 1009.2 1009.1 -
25/01:00pm - - - - - W 4 11 2 6 1009.4 1009.3 -
25/12:30pm - - - - - W 9 15 5 8 1009.7 1009.6 -
25/12:00pm - - - - - W 9 13 5 7 1010.2 1010.1 -
25/11:30am - - - - - WSW 6 9 3 5 1010.7 1010.6 -
25/11:00am - - - - - SW 6 9 3 5 1011.1 1011.0 -
25/10:30am - - - - - SSW 4 4 2 2 1011.2 1011.1 -
25/10:00am - - - - - SE 6 9 3 5 1011.4 1011.3 -
25/09:30am - - - - - ESE 7 11 4 6 1011.3 1011.2 -
25/09:00am - - - - - ESE 7 9 4 5 1011.1 1011.0 -
25/08:30am - - - - - E 4 7 2 4 1010.7 1010.6 -
25/08:00am - - - - - ENE 2 6 1 3 1010.5 1010.4 -
25/07:30am - - - - - CALM 0 4 0 2 1010.2 1010.1 -
25/07:00am - - - - - ENE 2 4 1 2 1010.0 1009.9 -
25/06:30am - - - - - ENE 2 6 1 3 1009.6 1009.5 -
25/06:00am - - - - - ENE 2 4 1 2 1009.3 1009.2 -

Latest Capital City Observations: Canberra | Sydney | Melbourne | Brisbane | Adelaide | Perth | Hobart | Darwin

Other Formats:

Comma delimited format used in spreadsheet applications
http://www.bom.gov.au/fwo/IDD60901/IDD60901.95122.axf

JavaScript Object Notation format (JSON) in row-major order
http://www.bom.gov.au/fwo/IDD60901/IDD60901.95122.json